sensor_id;sensor_type;location;lat;lon;timestamp;temperature;humidity
480;DHT22;226;48.606;9.096;2023-03-01T00:06:23;-2.30;81.30
480;DHT22;226;48.606;9.096;2023-03-01T00:08:51;-2.10;80.90
480;DHT22;226;48.606;9.096;2023-03-01T00:13:51;-2.10;78.70
480;DHT22;226;48.606;9.096;2023-03-01T00:16:22;-2.10;79.40
480;DHT22;226;48.606;9.096;2023-03-01T00:18:51;-2.10;78.50
480;DHT22;226;48.606;9.096;2023-03-01T00:21:20;-2.10;77.00
480;DHT22;226;48.606;9.096;2023-03-01T00:23:49;-2.10;76.50
480;DHT22;226;48.606;9.096;2023-03-01T00:26:19;-2.10;75.80
480;DHT22;226;48.606;9.096;2023-03-01T00:28:49;-2.10;76.00
480;DHT22;226;48.606;9.096;2023-03-01T00:31:19;-2.10;76.10
480;DHT22;226;48.606;9.096;2023-03-01T00:33:47;-2.20;75.50
480;DHT22;226;48.606;9.096;2023-03-01T00:36:16;-2.20;76.30
480;DHT22;226;48.606;9.096;2023-03-01T00:38:45;-2.30;77.00
480;DHT22;226;48.606;9.096;2023-03-01T00:41:15;-2.30;76.80
480;DHT22;226;48.606;9.096;2023-03-01T00:43:45;-2.30;77.40
480;DHT22;226;48.606;9.096;2023-03-01T00:46:16;-2.20;76.30
480;DHT22;226;48.606;9.096;2023-03-01T00:48:45;-2.30;76.50
480;DHT22;226;48.606;9.096;2023-03-01T00:51:15;-2.30;77.30
480;DHT22;226;48.606;9.096;2023-03-01T00:53:45;-2.30;76.60
480;DHT22;226;48.606;9.096;2023-03-01T00:56:14;-2.30;76.10
480;DHT22;226;48.606;9.096;2023-03-01T00:58:43;-2.30;76.10
480;DHT22;226;48.606;9.096;2023-03-01T01:01:13;-2.50;75.60
480;DHT22;226;48.606;9.096;2023-03-01T01:03:51;-2.30;76.00
480;DHT22;226;48.606;9.096;2023-03-01T01:06:21;-2.30;76.40
480;DHT22;226;48.606;9.096;2023-03-01T01:08:51;-2.40;76.20
480;DHT22;226;48.606;9.096;2023-03-01T01:11:20;-2.40;76.10
480;DHT22;226;48.606;9.096;2023-03-01T01:13:49;-2.40;76.60
480;DHT22;226;48.606;9.096;2023-03-01T01:16:19;-2.50;76.00
480;DHT22;226;48.606;9.096;2023-03-01T01:18:49;-2.40;76.60
480;DHT22;226;48.606;9.096;2023-03-01T01:21:20;-2.60;75.30
480;DHT22;226;48.606;9.096;2023-03-01T01:23:50;-2.50;75.00
480;DHT22;226;48.606;9.096;2023-03-01T01:26:20;-2.40;75.90
480;DHT22;226;48.606;9.096;2023-03-01T01:28:49;-2.50;75.80
480;DHT22;226;48.606;9.096;2023-03-01T01:31:18;-2.40;76.20
480;DHT22;226;48.606;9.096;2023-03-01T01:33:46;-2.30;76.30
480;DHT22;226;48.606;9.096;2023-03-01T01:36:16;-2.40;75.70
480;DHT22;226;48.606;9.096;2023-03-01T01:38:45;-2.60;75.70
480;DHT22;226;48.606;9.096;2023-03-01T01:41:13;-2.60;76.50
480;DHT22;226;48.606;9.096;2023-03-01T01:43:43;-2.70;76.80
480;DHT22;226;48.606;9.096;2023-03-01T01:46:19;-2.70;77.00
480;DHT22;226;48.606;9.096;2023-03-01T01:48:53;-2.70;76.60
480;DHT22;226;48.606;9.096;2023-03-01T01:51:28;-2.60;77.30
480;DHT22;226;48.606;9.096;2023-03-01T01:54:08;-2.60;76.70
480;DHT22;226;48.606;9.096;2023-03-01T01:56:39;-2.60;76.00
480;DHT22;226;48.606;9.096;2023-03-01T01:59:10;-2.60;75.80
480;DHT22;226;48.606;9.096;2023-03-01T02:01:39;-2.60;76.00
480;DHT22;226;48.606;9.096;2023-03-01T02:04:07;-2.70;77.00
480;DHT22;226;48.606;9.096;2023-03-01T02:06:41;-2.80;78.50
480;DHT22;226;48.606;9.096;2023-03-01T02:09:14;-2.60;79.00
480;DHT22;226;48.606;9.096;2023-03-01T02:11:44;-2.60;78.60
480;DHT22;226;48.606;9.096;2023-03-01T02:14:12;-2.50;78.20
480;DHT22;226;48.606;9.096;2023-03-01T02:16:41;-2.40;79.20
480;DHT22;226;48.606;9.096;2023-03-01T02:19:13;-2.20;77.60
480;DHT22;226;48.606;9.096;2023-03-01T02:21:51;-2.20;77.00
480;DHT22;226;48.606;9.096;2023-03-01T02:24:32;-2.00;76.80
480;DHT22;226;48.606;9.096;2023-03-01T02:27:03;-1.90;76.60
480;DHT22;226;48.606;9.096;2023-03-01T02:29:33;-1.80;74.60
480;DHT22;226;48.606;9.096;2023-03-01T02:32:02;-1.70;74.70
480;DHT22;226;48.606;9.096;2023-03-01T02:34:32;-1.70;75.00
480;DHT22;226;48.606;9.096;2023-03-01T02:37:04;-1.50;75.00
480;DHT22;226;48.606;9.096;2023-03-01T02:39:36;-1.50;74.20
480;DHT22;226;48.606;9.096;2023-03-01T02:42:11;-1.50;73.30
480;DHT22;226;48.606;9.096;2023-03-01T02:44:41;-1.40;71.80
480;DHT22;226;48.606;9.096;2023-03-01T02:47:10;-1.20;72.30
480;DHT22;226;48.606;9.096;2023-03-01T02:49:38;-1.20;71.80
480;DHT22;226;48.606;9.096;2023-03-01T02:52:28;-1.20;72.30
480;DHT22;226;48.606;9.096;2023-03-01T02:55:01;-1.10;72.70
480;DHT22;226;48.606;9.096;2023-03-01T02:57:31;-1.00;72.50
480;DHT22;226;48.606;9.096;2023-03-01T03:00:05;-1.00;71.90
480;DHT22;226;48.606;9.096;2023-03-01T03:02:35;-1.00;71.90
480;DHT22;226;48.606;9.096;2023-03-01T03:05:07;-0.80;71.90
480;DHT22;226;48.606;9.096;2023-03-01T03:07:37;-0.70;70.50
480;DHT22;226;48.606;9.096;2023-03-01T03:10:08;-0.70;70.20
480;DHT22;226;48.606;9.096;2023-03-01T03:12:38;-0.60;70.60
480;DHT22;226;48.606;9.096;2023-03-01T03:15:09;-0.60;69.60
480;DHT22;226;48.606;9.096;2023-03-01T03:17:41;-0.50;70.20
480;DHT22;226;48.606;9.096;2023-03-01T03:20:14;-0.50;69.60
480;DHT22;226;48.606;9.096;2023-03-01T03:22:46;-0.20;69.50
480;DHT22;226;48.606;9.096;2023-03-01T03:25:15;-0.10;69.20
480;DHT22;226;48.606;9.096;2023-03-01T03:27:46;-0.30;68.30
480;DHT22;226;48.606;9.096;2023-03-01T03:30:17;-0.20;67.40
480;DHT22;226;48.606;9.096;2023-03-01T03:32:48;-0.20;66.30
480;DHT22;226;48.606;9.096;2023-03-01T03:35:21;-0.10;65.70
480;DHT22;226;48.606;9.096;2023-03-01T03:37:51;-0.20;65.60
480;DHT22;226;48.606;9.096;2023-03-01T03:40:30;0.30;66.40
480;DHT22;226;48.606;9.096;2023-03-01T03:42:59;-0.20;65.90
480;DHT22;226;48.606;9.096;2023-03-01T03:45:28;-0.20;66.30
480;DHT22;226;48.606;9.096;2023-03-01T03:48:00;-0.40;66.60
480;DHT22;226;48.606;9.096;2023-03-01T03:50:29;-0.20;66.40
480;DHT22;226;48.606;9.096;2023-03-01T03:53:00;-0.30;66.20
480;DHT22;226;48.606;9.096;2023-03-01T03:55:28;-0.10;65.90
480;DHT22;226;48.606;9.096;2023-03-01T03:57:58;0.00;66.70
480;DHT22;226;48.606;9.096;2023-03-01T04:00:30;-0.20;66.30
480;DHT22;226;48.606;9.096;2023-03-01T04:02:58;-0.20;66.30
480;DHT22;226;48.606;9.096;2023-03-01T04:05:28;-0.10;66.00
480;DHT22;226;48.606;9.096;2023-03-01T04:07:56;-0.10;65.10
480;DHT22;226;48.606;9.096;2023-03-01T04:10:35;-0.20;65.80
480;DHT22;226;48.606;9.096;2023-03-01T04:13:05;-0.20;66.50
480;DHT22;226;48.606;9.096;2023-03-01T04:15:35;-0.10;65.80
480;DHT22;226;48.606;9.096;2023-03-01T04:18:03;-0.10;65.60
480;DHT22;226;48.606;9.096;2023-03-01T04:20:34;-0.10;65.80
480;DHT22;226;48.606;9.096;2023-03-01T04:23:07;0.00;66.10
480;DHT22;226;48.606;9.096;2023-03-01T04:25:45;-0.10;65.70
480;DHT22;226;48.606;9.096;2023-03-01T04:28:16;0.00;66.70
480;DHT22;226;48.606;9.096;2023-03-01T04:30:45;0.10;66.60
480;DHT22;226;48.606;9.096;2023-03-01T04:33:14;0.20;66.10
480;DHT22;226;48.606;9.096;2023-03-01T04:35:42;0.30;65.00
480;DHT22;226;48.606;9.096;2023-03-01T04:38:10;0.30;65.20
480;DHT22;226;48.606;9.096;2023-03-01T04:40:39;0.30;64.20
480;DHT22;226;48.606;9.096;2023-03-01T04:43:10;0.30;64.70
480;DHT22;226;48.606;9.096;2023-03-01T04:45:38;0.30;63.80
480;DHT22;226;48.606;9.096;2023-03-01T04:48:08;0.50;64.50
480;DHT22;226;48.606;9.096;2023-03-01T04:50:36;0.30;64.70
480;DHT22;226;48.606;9.096;2023-03-01T04:53:04;0.30;63.50
480;DHT22;226;48.606;9.096;2023-03-01T04:55:33;0.30;63.70
480;DHT22;226;48.606;9.096;2023-03-01T04:58:02;0.20;64.40
480;DHT22;226;48.606;9.096;2023-03-01T05:00:30;0.10;64.30
480;DHT22;226;48.606;9.096;2023-03-01T05:02:59;0.40;64.70
480;DHT22;226;48.606;9.096;2023-03-01T05:05:31;0.20;65.00
480;DHT22;226;48.606;9.096;2023-03-01T05:08:01;0.20;64.00
480;DHT22;226;48.606;9.096;2023-03-01T05:10:33;0.20;65.50
480;DHT22;226;48.606;9.096;2023-03-01T05:13:03;0.20;65.40
480;DHT22;226;48.606;9.096;2023-03-01T05:15:31;0.30;64.30
480;DHT22;226;48.606;9.096;2023-03-01T05:18:00;0.40;64.50
480;DHT22;226;48.606;9.096;2023-03-01T05:20:30;0.40;64.80
480;DHT22;226;48.606;9.096;2023-03-01T05:22:59;0.50;64.30
480;DHT22;226;48.606;9.096;2023-03-01T05:25:33;0.40;64.20
480;DHT22;226;48.606;9.096;2023-03-01T05:28:02;0.50;64.20
480;DHT22;226;48.606;9.096;2023-03-01T05:30:31;0.40;64.60
480;DHT22;226;48.606;9.096;2023-03-01T05:33:01;0.40;64.20
480;DHT22;226;48.606;9.096;2023-03-01T05:35:32;0.40;64.20
480;DHT22;226;48.606;9.096;2023-03-01T05:38:01;0.30;63.80
480;DHT22;226;48.606;9.096;2023-03-01T05:40:29;0.40;65.00
480;DHT22;226;48.606;9.096;2023-03-01T05:42:57;0.40;64.10
480;DHT22;226;48.606;9.096;2023-03-01T05:45:26;0.40;65.40
480;DHT22;226;48.606;9.096;2023-03-01T05:47:55;0.50;64.10
480;DHT22;226;48.606;9.096;2023-03-01T05:50:25;0.60;63.60
480;DHT22;226;48.606;9.096;2023-03-01T05:53:01;0.70;63.10
480;DHT22;226;48.606;9.096;2023-03-01T05:55:30;0.60;62.40
480;DHT22;226;48.606;9.096;2023-03-01T05:57:59;0.60;62.30
480;DHT22;226;48.606;9.096;2023-03-01T06:00:28;0.70;62.50
480;DHT22;226;48.606;9.096;2023-03-01T06:02:57;0.70;62.80
480;DHT22;226;48.606;9.096;2023-03-01T06:05:26;0.90;62.30
480;DHT22;226;48.606;9.096;2023-03-01T06:07:55;0.80;62.30
480;DHT22;226;48.606;9.096;2023-03-01T06:10:27;0.80;62.00
480;DHT22;226;48.606;9.096;2023-03-01T06:12:56;0.80;61.80
480;DHT22;226;48.606;9.096;2023-03-01T06:15:25;0.80;61.40
480;DHT22;226;48.606;9.096;2023-03-01T06:17:55;0.80;61.40
480;DHT22;226;48.606;9.096;2023-03-01T06:20:27;0.80;61.10
480;DHT22;226;48.606;9.096;2023-03-01T06:22:56;0.90;61.30
480;DHT22;226;48.606;9.096;2023-03-01T06:25:27;0.80;61.70
480;DHT22;226;48.606;9.096;2023-03-01T06:27:55;0.80;61.00
480;DHT22;226;48.606;9.096;2023-03-01T06:30:25;0.90;61.20
480;DHT22;226;48.606;9.096;2023-03-01T06:32:54;1.00;60.40
480;DHT22;226;48.606;9.096;2023-03-01T06:35:27;1.00;61.80
480;DHT22;226;48.606;9.096;2023-03-01T06:37:58;1.10;61.70
480;DHT22;226;48.606;9.096;2023-03-01T06:40:28;1.00;61.50
480;DHT22;226;48.606;9.096;2023-03-01T06:42:58;1.10;60.00
480;DHT22;226;48.606;9.096;2023-03-01T06:45:26;1.00;60.80
480;DHT22;226;48.606;9.096;2023-03-01T06:48:02;1.10;60.30
480;DHT22;226;48.606;9.096;2023-03-01T06:50:31;1.00;60.30
480;DHT22;226;48.606;9.096;2023-03-01T06:53:00;1.00;60.60
480;DHT22;226;48.606;9.096;2023-03-01T06:55:30;0.90;60.60
480;DHT22;226;48.606;9.096;2023-03-01T06:58:00;0.90;60.30
480;DHT22;226;48.606;9.096;2023-03-01T07:00:28;0.90;60.70
480;DHT22;226;48.606;9.096;2023-03-01T07:02:58;1.00;60.60
480;DHT22;226;48.606;9.096;2023-03-01T07:05:27;1.00;59.60
480;DHT22;226;48.606;9.096;2023-03-01T07:07:55;1.00;59.70
480;DHT22;226;48.606;9.096;2023-03-01T07:10:23;1.00;59.80
480;DHT22;226;48.606;9.096;2023-03-01T07:12:55;1.00;59.50
480;DHT22;226;48.606;9.096;2023-03-01T07:15:24;1.00;59.30
480;DHT22;226;48.606;9.096;2023-03-01T07:17:53;1.00;59.00
480;DHT22;226;48.606;9.096;2023-03-01T07:20:21;0.90;59.30
480;DHT22;226;48.606;9.096;2023-03-01T07:22:52;0.90;59.40
480;DHT22;226;48.606;9.096;2023-03-01T07:25:21;0.90;59.20
480;DHT22;226;48.606;9.096;2023-03-01T07:27:50;1.10;59.50
480;DHT22;226;48.606;9.096;2023-03-01T07:30:21;1.00;59.50
480;DHT22;226;48.606;9.096;2023-03-01T07:32:53;1.10;59.60
480;DHT22;226;48.606;9.096;2023-03-01T07:35:22;1.00;59.00
480;DHT22;226;48.606;9.096;2023-03-01T07:37:50;1.00;59.40
480;DHT22;226;48.606;9.096;2023-03-01T07:40:18;1.00;59.80
480;DHT22;226;48.606;9.096;2023-03-01T07:42:47;1.00;59.30
480;DHT22;226;48.606;9.096;2023-03-01T07:45:15;1.00;59.00
480;DHT22;226;48.606;9.096;2023-03-01T07:47:45;1.10;58.90
480;DHT22;226;48.606;9.096;2023-03-01T07:50:13;1.10;58.20
480;DHT22;226;48.606;9.096;2023-03-01T07:52:44;1.10;58.70
480;DHT22;226;48.606;9.096;2023-03-01T07:55:12;1.20;58.40
480;DHT22;226;48.606;9.096;2023-03-01T07:57:40;1.10;57.90
480;DHT22;226;48.606;9.096;2023-03-01T08:00:11;1.20;57.40
480;DHT22;226;48.606;9.096;2023-03-01T08:02:39;1.20;57.40
480;DHT22;226;48.606;9.096;2023-03-01T08:05:10;1.20;57.60
480;DHT22;226;48.606;9.096;2023-03-01T08:07:38;1.20;57.70
480;DHT22;226;48.606;9.096;2023-03-01T08:10:08;1.20;58.10
480;DHT22;226;48.606;9.096;2023-03-01T08:12:36;1.90;58.30
480;DHT22;226;48.606;9.096;2023-03-01T08:15:05;1.30;57.60
480;DHT22;226;48.606;9.096;2023-03-01T08:17:34;1.30;57.70
480;DHT22;226;48.606;9.096;2023-03-01T08:20:02;1.30;56.90
480;DHT22;226;48.606;9.096;2023-03-01T08:22:34;1.30;58.20
480;DHT22;226;48.606;9.096;2023-03-01T08:25:03;1.40;57.80
480;DHT22;226;48.606;9.096;2023-03-01T08:27:31;1.40;57.20
480;DHT22;226;48.606;9.096;2023-03-01T08:29:59;1.50;57.40
480;DHT22;226;48.606;9.096;2023-03-01T08:32:28;1.60;57.70
480;DHT22;226;48.606;9.096;2023-03-01T08:34:56;1.80;57.50
480;DHT22;226;48.606;9.096;2023-03-01T08:37:25;1.90;57.20
480;DHT22;226;48.606;9.096;2023-03-01T08:39:54;1.70;56.90
480;DHT22;226;48.606;9.096;2023-03-01T08:42:23;1.80;56.40
480;DHT22;226;48.606;9.096;2023-03-01T08:44:51;1.90;55.90
480;DHT22;226;48.606;9.096;2023-03-01T08:47:19;1.90;56.10
480;DHT22;226;48.606;9.096;2023-03-01T08:49:49;1.90;54.90
480;DHT22;226;48.606;9.096;2023-03-01T08:52:17;2.10;55.60
480;DHT22;226;48.606;9.096;2023-03-01T08:54:47;2.70;56.20
480;DHT22;226;48.606;9.096;2023-03-01T08:57:17;2.00;55.30
480;DHT22;226;48.606;9.096;2023-03-01T08:59:45;2.00;54.20
480;DHT22;226;48.606;9.096;2023-03-01T09:02:16;2.10;54.80
480;DHT22;226;48.606;9.096;2023-03-01T09:04:44;2.20;53.70
480;DHT22;226;48.606;9.096;2023-03-01T09:07:13;2.00;53.60
480;DHT22;226;48.606;9.096;2023-03-01T09:09:41;2.10;55.00
480;DHT22;226;48.606;9.096;2023-03-01T09:12:09;2.40;54.00
480;DHT22;226;48.606;9.096;2023-03-01T09:14:39;2.10;53.40
480;DHT22;226;48.606;9.096;2023-03-01T09:17:08;2.30;53.70
480;DHT22;226;48.606;9.096;2023-03-01T09:19:36;2.40;53.80
480;DHT22;226;48.606;9.096;2023-03-01T09:22:05;2.40;53.00
480;DHT22;226;48.606;9.096;2023-03-01T09:24:33;2.30;52.20
480;DHT22;226;48.606;9.096;2023-03-01T09:27:01;2.50;51.70
480;DHT22;226;48.606;9.096;2023-03-01T09:29:29;2.60;52.00
480;DHT22;226;48.606;9.096;2023-03-01T09:31:59;2.60;51.60
480;DHT22;226;48.606;9.096;2023-03-01T09:34:27;2.70;53.20
480;DHT22;226;48.606;9.096;2023-03-01T09:36:57;2.80;52.10
480;DHT22;226;48.606;9.096;2023-03-01T09:39:29;2.80;50.00
480;DHT22;226;48.606;9.096;2023-03-01T09:42:00;2.90;49.70
480;DHT22;226;48.606;9.096;2023-03-01T09:44:35;2.90;48.70
480;DHT22;226;48.606;9.096;2023-03-01T09:47:17;3.00;49.00
480;DHT22;226;48.606;9.096;2023-03-01T09:49:50;3.10;49.30
480;DHT22;226;48.606;9.096;2023-03-01T09:52:25;3.20;52.00
480;DHT22;226;48.606;9.096;2023-03-01T09:54:56;3.30;50.00
480;DHT22;226;48.606;9.096;2023-03-01T09:57:33;3.30;49.10
480;DHT22;226;48.606;9.096;2023-03-01T10:00:18;3.20;48.80
480;DHT22;226;48.606;9.096;2023-03-01T10:02:52;3.30;49.10
480;DHT22;226;48.606;9.096;2023-03-01T10:05:35;3.30;48.30
480;DHT22;226;48.606;9.096;2023-03-01T10:11:03;3.50;52.30
480;DHT22;226;48.606;9.096;2023-03-01T10:13:41;3.60;52.00
480;DHT22;226;48.606;9.096;2023-03-01T10:16:16;3.80;51.50
480;DHT22;226;48.606;9.096;2023-03-01T10:18:52;3.70;50.40
480;DHT22;226;48.606;9.096;2023-03-01T10:21:21;3.80;51.00
480;DHT22;226;48.606;9.096;2023-03-01T10:23:52;3.90;51.50
480;DHT22;226;48.606;9.096;2023-03-01T10:26:39;3.80;51.30
480;DHT22;226;48.606;9.096;2023-03-01T10:29:12;3.90;51.20
480;DHT22;226;48.606;9.096;2023-03-01T10:31:43;3.90;50.10
480;DHT22;226;48.606;9.096;2023-03-01T10:34:17;3.90;49.00
480;DHT22;226;48.606;9.096;2023-03-01T10:36:48;3.90;50.00
480;DHT22;226;48.606;9.096;2023-03-01T10:39:19;3.90;49.10
480;DHT22;226;48.606;9.096;2023-03-01T10:41:59;3.90;48.40
480;DHT22;226;48.606;9.096;2023-03-01T10:44:43;3.80;48.70
480;DHT22;226;48.606;9.096;2023-03-01T10:47:17;4.10;49.90
480;DHT22;226;48.606;9.096;2023-03-01T10:49:57;4.00;49.30
480;DHT22;226;48.606;9.096;2023-03-01T10:52:29;4.00;49.50
480;DHT22;226;48.606;9.096;2023-03-01T10:54:59;4.10;48.90
480;DHT22;226;48.606;9.096;2023-03-01T10:57:35;4.30;48.70
480;DHT22;226;48.606;9.096;2023-03-01T11:00:20;4.40;48.60
480;DHT22;226;48.606;9.096;2023-03-01T11:02:51;4.40;47.70
480;DHT22;226;48.606;9.096;2023-03-01T11:05:30;4.40;47.40
480;DHT22;226;48.606;9.096;2023-03-01T11:08:02;4.90;48.30
480;DHT22;226;48.606;9.096;2023-03-01T11:10:33;4.50;47.00
480;DHT22;226;48.606;9.096;2023-03-01T11:13:13;4.50;47.50
480;DHT22;226;48.606;9.096;2023-03-01T11:15:42;4.50;46.80
480;DHT22;226;48.606;9.096;2023-03-01T11:18:20;4.60;46.90
480;DHT22;226;48.606;9.096;2023-03-01T11:21:05;4.60;47.30
480;DHT22;226;48.606;9.096;2023-03-01T11:23:37;4.80;49.10
480;DHT22;226;48.606;9.096;2023-03-01T11:26:08;4.80;48.50
480;DHT22;226;48.606;9.096;2023-03-01T11:28:40;4.80;48.10
480;DHT22;226;48.606;9.096;2023-03-01T11:31:11;5.00;47.90
480;DHT22;226;48.606;9.096;2023-03-01T11:36:19;5.00;50.00
480;DHT22;226;48.606;9.096;2023-03-01T11:38:50;5.00;48.60
480;DHT22;226;48.606;9.096;2023-03-01T11:41:21;5.00;47.90
480;DHT22;226;48.606;9.096;2023-03-01T11:43:52;5.00;48.00
480;DHT22;226;48.606;9.096;2023-03-01T11:46:47;5.20;48.20
480;DHT22;226;48.606;9.096;2023-03-01T11:49:41;5.20;48.50
480;DHT22;226;48.606;9.096;2023-03-01T11:52:21;5.40;48.10
480;DHT22;226;48.606;9.096;2023-03-01T11:55:02;5.40;46.80
480;DHT22;226;48.606;9.096;2023-03-01T11:57:48;5.40;46.50
480;DHT22;226;48.606;9.096;2023-03-01T12:00:32;5.80;46.30
480;DHT22;226;48.606;9.096;2023-03-01T14:14:44;10.50;31.80
480;DHT22;226;48.606;9.096;2023-03-01T14:17:31;10.50;27.80
480;DHT22;226;48.606;9.096;2023-03-01T14:20:07;10.80;24.90
480;DHT22;226;48.606;9.096;2023-03-01T14:22:37;11.30;27.80
480;DHT22;226;48.606;9.096;2023-03-01T14:25:19;11.40;22.30
480;DHT22;226;48.606;9.096;2023-03-01T14:27:56;11.70;19.70
480;DHT22;226;48.606;9.096;2023-03-01T14:30:27;11.90;19.10
480;DHT22;226;48.606;9.096;2023-03-01T14:33:00;12.80;21.00
480;DHT22;226;48.606;9.096;2023-03-01T14:35:30;11.80;19.20
480;DHT22;226;48.606;9.096;2023-03-01T14:37:59;11.60;19.30
480;DHT22;226;48.606;9.096;2023-03-01T14:40:30;11.90;17.50
480;DHT22;226;48.606;9.096;2023-03-01T14:43:02;12.10;16.80
480;DHT22;226;48.606;9.096;2023-03-01T14:45:35;12.40;16.00
480;DHT22;226;48.606;9.096;2023-03-01T14:48:06;12.20;17.80
480;DHT22;226;48.606;9.096;2023-03-01T14:50:40;12.10;17.50
480;DHT22;226;48.606;9.096;2023-03-01T14:53:16;12.20;16.30
480;DHT22;226;48.606;9.096;2023-03-01T14:55:47;11.70;18.20
480;DHT22;226;48.606;9.096;2023-03-01T14:58:19;11.20;18.80
480;DHT22;226;48.606;9.096;2023-03-01T15:00:50;11.10;20.30
480;DHT22;226;48.606;9.096;2023-03-01T15:03:27;11.30;20.60
480;DHT22;226;48.606;9.096;2023-03-01T15:06:00;11.50;19.90
480;DHT22;226;48.606;9.096;2023-03-01T15:08:30;11.10;21.50
480;DHT22;226;48.606;9.096;2023-03-01T15:11:03;11.50;21.50
480;DHT22;226;48.606;9.096;2023-03-01T15:13:35;11.90;21.50
480;DHT22;226;48.606;9.096;2023-03-01T15:16:09;11.60;16.10
480;DHT22;226;48.606;9.096;2023-03-01T15:18:43;11.50;14.90
480;DHT22;226;48.606;9.096;2023-03-01T15:21:18;11.30;14.60
480;DHT22;226;48.606;9.096;2023-03-01T15:23:50;11.40;13.00
480;DHT22;226;48.606;9.096;2023-03-01T15:26:25;10.90;22.30
480;DHT22;226;48.606;9.096;2023-03-01T15:28:58;10.90;24.00
480;DHT22;226;48.606;9.096;2023-03-01T15:31:28;10.80;24.80
480;DHT22;226;48.606;9.096;2023-03-01T15:34:23;10.80;25.90
480;DHT22;226;48.606;9.096;2023-03-01T15:36:52;10.50;18.90
480;DHT22;226;48.606;9.096;2023-03-01T15:39:36;10.40;16.80
480;DHT22;226;48.606;9.096;2023-03-01T15:42:08;10.60;14.30
480;DHT22;226;48.606;9.096;2023-03-01T15:44:38;10.70;12.20
480;DHT22;226;48.606;9.096;2023-03-01T15:47:23;11.00;10.80
480;DHT22;226;48.606;9.096;2023-03-01T15:49:55;11.10;9.90
480;DHT22;226;48.606;9.096;2023-03-01T15:52:27;11.20;9.30
480;DHT22;226;48.606;9.096;2023-03-01T15:54:57;11.40;8.80
480;DHT22;226;48.606;9.096;2023-03-01T15:57:27;11.20;8.30
480;DHT22;226;48.606;9.096;2023-03-01T15:59:55;11.00;7.80
480;DHT22;226;48.606;9.096;2023-03-01T16:02:24;10.80;7.70
480;DHT22;226;48.606;9.096;2023-03-01T16:04:54;10.70;7.70
480;DHT22;226;48.606;9.096;2023-03-01T16:07:23;10.60;9.90
480;DHT22;226;48.606;9.096;2023-03-01T16:12:22;10.50;25.10
480;DHT22;226;48.606;9.096;2023-03-01T16:14:51;9.60;25.80
480;DHT22;226;48.606;9.096;2023-03-01T16:54:39;7.10;1.70
480;DHT22;226;48.606;9.096;2023-03-01T16:57:07;6.80;2.40
480;DHT22;226;48.606;9.096;2023-03-01T16:59:35;6.70;2.60
480;DHT22;226;48.606;9.096;2023-03-01T17:02:04;6.70;2.80
480;DHT22;226;48.606;9.096;2023-03-01T17:04:33;6.60;3.10
480;DHT22;226;48.606;9.096;2023-03-01T17:07:01;6.50;3.10
480;DHT22;226;48.606;9.096;2023-03-01T17:09:29;6.50;3.00
480;DHT22;226;48.606;9.096;2023-03-01T17:11:59;6.40;3.20
480;DHT22;226;48.606;9.096;2023-03-01T17:14:27;6.30;3.20
480;DHT22;226;48.606;9.096;2023-03-01T17:16:55;6.30;3.50
480;DHT22;226;48.606;9.096;2023-03-01T17:19:25;6.20;3.60
480;DHT22;226;48.606;9.096;2023-03-01T17:21:55;6.10;3.50
480;DHT22;226;48.606;9.096;2023-03-01T17:24:24;6.10;3.70
480;DHT22;226;48.606;9.096;2023-03-01T17:26:52;6.00;3.80
480;DHT22;226;48.606;9.096;2023-03-01T17:29:21;6.00;3.80
480;DHT22;226;48.606;9.096;2023-03-01T17:31:49;5.90;4.10
480;DHT22;226;48.606;9.096;2023-03-01T17:34:18;5.90;4.30
480;DHT22;226;48.606;9.096;2023-03-01T17:36:46;5.80;4.30
480;DHT22;226;48.606;9.096;2023-03-01T17:39:16;5.80;4.40
480;DHT22;226;48.606;9.096;2023-03-01T17:41:46;5.70;4.40
480;DHT22;226;48.606;9.096;2023-03-01T17:44:14;5.70;4.50
480;DHT22;226;48.606;9.096;2023-03-01T17:46:44;5.60;5.20
480;DHT22;226;48.606;9.096;2023-03-01T17:49:12;5.60;4.80
480;DHT22;226;48.606;9.096;2023-03-01T17:51:40;5.50;4.70
480;DHT22;226;48.606;9.096;2023-03-01T17:54:08;5.50;4.70
480;DHT22;226;48.606;9.096;2023-03-01T17:56:37;5.40;4.80
480;DHT22;226;48.606;9.096;2023-03-01T17:59:07;5.40;5.00
480;DHT22;226;48.606;9.096;2023-03-01T18:01:35;5.30;5.30
480;DHT22;226;48.606;9.096;2023-03-01T18:04:06;5.30;5.30
480;DHT22;226;48.606;9.096;2023-03-01T18:06:35;5.30;5.30
480;DHT22;226;48.606;9.096;2023-03-01T18:09:03;5.30;5.50
480;DHT22;226;48.606;9.096;2023-03-01T18:11:33;5.40;5.40
480;DHT22;226;48.606;9.096;2023-03-01T18:14:02;5.30;5.70
480;DHT22;226;48.606;9.096;2023-03-01T18:16:30;5.20;6.00
480;DHT22;226;48.606;9.096;2023-03-01T18:19:00;5.30;6.10
480;DHT22;226;48.606;9.096;2023-03-01T18:21:30;5.30;6.10
480;DHT22;226;48.606;9.096;2023-03-01T18:23:59;5.30;6.10
480;DHT22;226;48.606;9.096;2023-03-01T18:26:28;5.30;6.60
480;DHT22;226;48.606;9.096;2023-03-01T18:28:57;5.20;6.30
480;DHT22;226;48.606;9.096;2023-03-01T18:31:28;5.20;6.00
480;DHT22;226;48.606;9.096;2023-03-01T18:33:59;5.20;6.40
480;DHT22;226;48.606;9.096;2023-03-01T18:36:30;5.00;6.50
480;DHT22;226;48.606;9.096;2023-03-01T18:39:01;4.90;6.70
480;DHT22;226;48.606;9.096;2023-03-01T18:41:29;4.90;7.00
480;DHT22;226;48.606;9.096;2023-03-01T18:44:00;4.80;7.50
480;DHT22;226;48.606;9.096;2023-03-01T18:46:28;4.70;7.70
480;DHT22;226;48.606;9.096;2023-03-01T18:48:57;4.70;8.10
480;DHT22;226;48.606;9.096;2023-03-01T18:51:27;4.50;8.50
480;DHT22;226;48.606;9.096;2023-03-01T18:53:58;4.10;9.60
480;DHT22;226;48.606;9.096;2023-03-01T18:56:28;3.60;10.90
480;DHT22;226;48.606;9.096;2023-03-01T18:58:56;3.20;12.10
480;DHT22;226;48.606;9.096;2023-03-01T19:01:27;2.90;13.30
480;DHT22;226;48.606;9.096;2023-03-01T19:03:57;2.80;14.20
480;DHT22;226;48.606;9.096;2023-03-01T19:06:28;2.60;14.70
480;DHT22;226;48.606;9.096;2023-03-01T19:08:59;2.50;15.20
480;DHT22;226;48.606;9.096;2023-03-01T19:11:27;2.40;15.90
480;DHT22;226;48.606;9.096;2023-03-01T19:13:58;2.30;15.90
480;DHT22;226;48.606;9.096;2023-03-01T19:16:29;2.30;16.30
480;DHT22;226;48.606;9.096;2023-03-01T19:18:59;2.20;17.00
480;DHT22;226;48.606;9.096;2023-03-01T19:21:30;2.10;17.60
480;DHT22;226;48.606;9.096;2023-03-01T19:24:01;1.90;18.00
480;DHT22;226;48.606;9.096;2023-03-01T19:26:30;1.80;18.80
480;DHT22;226;48.606;9.096;2023-03-01T19:29:00;1.70;19.60
480;DHT22;226;48.606;9.096;2023-03-01T19:31:29;1.50;19.90
480;DHT22;226;48.606;9.096;2023-03-01T19:33:58;1.40;20.50
480;DHT22;226;48.606;9.096;2023-03-01T19:36:37;1.30;20.60
480;DHT22;226;48.606;9.096;2023-03-01T19:39:07;1.30;21.10
480;DHT22;226;48.606;9.096;2023-03-01T19:41:35;1.30;20.90
480;DHT22;226;48.606;9.096;2023-03-01T19:44:04;1.30;21.30
480;DHT22;226;48.606;9.096;2023-03-01T19:46:34;1.40;20.90
480;DHT22;226;48.606;9.096;2023-03-01T19:49:03;1.30;21.20
480;DHT22;226;48.606;9.096;2023-03-01T19:51:32;1.30;21.60
480;DHT22;226;48.606;9.096;2023-03-01T19:54:03;1.30;22.20
480;DHT22;226;48.606;9.096;2023-03-01T19:56:33;1.30;22.30
480;DHT22;226;48.606;9.096;2023-03-01T19:59:02;1.20;22.10
480;DHT22;226;48.606;9.096;2023-03-01T20:01:31;1.00;23.40
480;DHT22;226;48.606;9.096;2023-03-01T20:04:01;0.90;23.40
480;DHT22;226;48.606;9.096;2023-03-01T20:06:29;0.90;23.50
480;DHT22;226;48.606;9.096;2023-03-01T20:08:58;0.90;23.40
480;DHT22;226;48.606;9.096;2023-03-01T20:11:46;0.90;23.50
480;DHT22;226;48.606;9.096;2023-03-01T20:14:14;0.90;23.50
480;DHT22;226;48.606;9.096;2023-03-01T20:16:42;0.80;24.10
480;DHT22;226;48.606;9.096;2023-03-01T20:19:11;0.70;24.60